sensor_id;sensor_type;location;lat;lon;timestamp;P1;durP1;ratioP1;P2;durP2;ratioP2
80249;SDS011;69561;37.974;23.708;2023-06-04T00:00:38;6.28;;;4.05;;
80249;SDS011;69561;37.974;23.708;2023-06-04T00:03:04;6.93;;;3.85;;
80249;SDS011;69561;37.974;23.708;2023-06-04T00:05:30;8.88;;;4.07;;
80249;SDS011;69561;37.974;23.708;2023-06-04T00:07:56;7.25;;;3.92;;
80249;SDS011;69561;37.974;23.708;2023-06-04T00:10:22;5.78;;;3.88;;
80249;SDS011;69561;37.974;23.708;2023-06-04T00:12:48;5.65;;;4.13;;
80249;SDS011;69561;37.974;23.708;2023-06-04T00:15:13;7.72;;;3.78;;
80249;SDS011;69561;37.974;23.708;2023-06-04T00:17:41;5.95;;;3.80;;
80249;SDS011;69561;37.974;23.708;2023-06-04T00:20:07;11.57;;;4.03;;
80249;SDS011;69561;37.974;23.708;2023-06-04T00:22:33;6.00;;;4.20;;
80249;SDS011;69561;37.974;23.708;2023-06-04T00:24:59;9.27;;;4.05;;
80249;SDS011;69561;37.974;23.708;2023-06-04T00:27:24;12.57;;;3.78;;
80249;SDS011;69561;37.974;23.708;2023-06-04T00:29:50;5.15;;;4.03;;
80249;SDS011;69561;37.974;23.708;2023-06-04T00:32:16;8.82;;;4.20;;
80249;SDS011;69561;37.974;23.708;2023-06-04T00:34:41;6.47;;;3.95;;
80249;SDS011;69561;37.974;23.708;2023-06-04T00:37:07;7.47;;;4.30;;
80249;SDS011;69561;37.974;23.708;2023-06-04T00:39:33;8.38;;;4.20;;
80249;SDS011;69561;37.974;23.708;2023-06-04T00:41:59;8.63;;;4.13;;
80249;SDS011;69561;37.974;23.708;2023-06-04T00:44:25;6.22;;;4.07;;
80249;SDS011;69561;37.974;23.708;2023-06-04T00:46:52;7.43;;;4.28;;
80249;SDS011;69561;37.974;23.708;2023-06-04T00:49:19;12.88;;;4.22;;
80249;SDS011;69561;37.974;23.708;2023-06-04T00:51:45;8.95;;;4.13;;
80249;SDS011;69561;37.974;23.708;2023-06-04T00:54:11;7.45;;;3.95;;
80249;SDS011;69561;37.974;23.708;2023-06-04T00:56:38;6.95;;;4.22;;
80249;SDS011;69561;37.974;23.708;2023-06-04T00:59:05;9.60;;;4.10;;
80249;SDS011;69561;37.974;23.708;2023-06-04T01:07:03;6.43;;;4.22;;
80249;SDS011;69561;37.974;23.708;2023-06-04T01:09:29;8.23;;;4.10;;
80249;SDS011;69561;37.974;23.708;2023-06-04T01:11:56;6.75;;;3.70;;
80249;SDS011;69561;37.974;23.708;2023-06-04T01:14:26;7.95;;;4.15;;
80249;SDS011;69561;37.974;23.708;2023-06-04T01:16:57;9.18;;;4.10;;
80249;SDS011;69561;37.974;23.708;2023-06-04T01:22:03;8.23;;;4.57;;
80249;SDS011;69561;37.974;23.708;2023-06-04T01:24:34;11.48;;;4.65;;
80249;SDS011;69561;37.974;23.708;2023-06-04T01:27:01;8.27;;;4.13;;
80249;SDS011;69561;37.974;23.708;2023-06-04T01:29:30;10.63;;;4.25;;
80249;SDS011;69561;37.974;23.708;2023-06-04T01:31:57;8.35;;;4.50;;
80249;SDS011;69561;37.974;23.708;2023-06-04T01:34:23;12.25;;;4.07;;
80249;SDS011;69561;37.974;23.708;2023-06-04T01:36:49;7.18;;;4.15;;
80249;SDS011;69561;37.974;23.708;2023-06-04T01:39:15;7.40;;;4.28;;
80249;SDS011;69561;37.974;23.708;2023-06-04T01:41:42;4.65;;;3.83;;
80249;SDS011;69561;37.974;23.708;2023-06-04T01:44:07;9.63;;;4.05;;
80249;SDS011;69561;37.974;23.708;2023-06-04T01:46:33;13.93;;;4.50;;
80249;SDS011;69561;37.974;23.708;2023-06-04T01:48:59;7.53;;;4.50;;
80249;SDS011;69561;37.974;23.708;2023-06-04T01:51:24;11.77;;;4.32;;
80249;SDS011;69561;37.974;23.708;2023-06-04T01:53:51;11.35;;;4.75;;
80249;SDS011;69561;37.974;23.708;2023-06-04T01:56:16;9.25;;;4.57;;
80249;SDS011;69561;37.974;23.708;2023-06-04T01:58:42;10.20;;;4.57;;
80249;SDS011;69561;37.974;23.708;2023-06-04T02:01:08;13.88;;;4.75;;
80249;SDS011;69561;37.974;23.708;2023-06-04T02:03:34;9.85;;;4.32;;
80249;SDS011;69561;37.974;23.708;2023-06-04T02:06:02;6.32;;;4.28;;
80249;SDS011;69561;37.974;23.708;2023-06-04T02:08:32;7.32;;;4.30;;
80249;SDS011;69561;37.974;23.708;2023-06-04T02:10:58;12.90;;;4.38;;
80249;SDS011;69561;37.974;23.708;2023-06-04T02:13:24;7.03;;;4.45;;
80249;SDS011;69561;37.974;23.708;2023-06-04T02:15:50;8.60;;;4.10;;
80249;SDS011;69561;37.974;23.708;2023-06-04T02:18:16;11.63;;;4.32;;
80249;SDS011;69561;37.974;23.708;2023-06-04T02:20:46;7.32;;;4.32;;
80249;SDS011;69561;37.974;23.708;2023-06-04T02:23:12;7.65;;;4.22;;
80249;SDS011;69561;37.974;23.708;2023-06-04T02:25:40;8.48;;;3.80;;
80249;SDS011;69561;37.974;23.708;2023-06-04T02:28:06;12.20;;;4.07;;
80249;SDS011;69561;37.974;23.708;2023-06-04T02:30:32;7.00;;;3.80;;
80249;SDS011;69561;37.974;23.708;2023-06-04T02:32:58;9.80;;;3.80;;
80249;SDS011;69561;37.974;23.708;2023-06-04T02:35:26;6.07;;;3.55;;
80249;SDS011;69561;37.974;23.708;2023-06-04T02:37:52;7.50;;;4.28;;
80249;SDS011;69561;37.974;23.708;2023-06-04T02:40:18;7.40;;;4.03;;
80249;SDS011;69561;37.974;23.708;2023-06-04T02:42:44;5.18;;;3.95;;
80249;SDS011;69561;37.974;23.708;2023-06-04T02:45:10;8.55;;;3.70;;
80249;SDS011;69561;37.974;23.708;2023-06-04T02:47:36;6.45;;;4.18;;
80249;SDS011;69561;37.974;23.708;2023-06-04T02:50:02;8.43;;;3.95;;
80249;SDS011;69561;37.974;23.708;2023-06-04T02:52:29;7.50;;;4.15;;
80249;SDS011;69561;37.974;23.708;2023-06-04T02:54:55;7.40;;;4.10;;
80249;SDS011;69561;37.974;23.708;2023-06-04T02:57:22;7.35;;;3.47;;
80249;SDS011;69561;37.974;23.708;2023-06-04T02:59:48;8.55;;;3.53;;
80249;SDS011;69561;37.974;23.708;2023-06-04T03:02:13;4.88;;;3.67;;
80249;SDS011;69561;37.974;23.708;2023-06-04T03:04:40;7.78;;;3.65;;
80249;SDS011;69561;37.974;23.708;2023-06-04T03:07:07;8.52;;;4.15;;
80249;SDS011;69561;37.974;23.708;2023-06-04T03:09:36;6.78;;;4.10;;
80249;SDS011;69561;37.974;23.708;2023-06-04T03:12:02;6.72;;;3.65;;
80249;SDS011;69561;37.974;23.708;2023-06-04T03:14:28;9.52;;;4.18;;
80249;SDS011;69561;37.974;23.708;2023-06-04T03:17:01;7.72;;;4.10;;
80249;SDS011;69561;37.974;23.708;2023-06-04T03:19:35;7.40;;;3.97;;
80249;SDS011;69561;37.974;23.708;2023-06-04T03:22:02;11.15;;;4.00;;
80249;SDS011;69561;37.974;23.708;2023-06-04T03:24:32;6.97;;;3.30;;
80249;SDS011;69561;37.974;23.708;2023-06-04T03:27:01;7.25;;;4.00;;
80249;SDS011;69561;37.974;23.708;2023-06-04T03:29:34;9.27;;;3.72;;
80249;SDS011;69561;37.974;23.708;2023-06-04T03:32:00;7.15;;;3.78;;
80249;SDS011;69561;37.974;23.708;2023-06-04T03:34:26;7.75;;;4.03;;
80249;SDS011;69561;37.974;23.708;2023-06-04T03:36:55;11.30;;;4.28;;
80249;SDS011;69561;37.974;23.708;2023-06-04T03:39:22;5.90;;;3.90;;
80249;SDS011;69561;37.974;23.708;2023-06-04T03:41:48;5.05;;;3.78;;
80249;SDS011;69561;37.974;23.708;2023-06-04T03:44:14;7.97;;;3.97;;
80249;SDS011;69561;37.974;23.708;2023-06-04T03:46:41;6.32;;;3.60;;
80249;SDS011;69561;37.974;23.708;2023-06-04T03:49:09;12.32;;;4.03;;
80249;SDS011;69561;37.974;23.708;2023-06-04T03:51:36;6.90;;;4.10;;
80249;SDS011;69561;37.974;23.708;2023-06-04T03:54:02;8.77;;;4.05;;
80249;SDS011;69561;37.974;23.708;2023-06-04T03:56:28;11.73;;;4.22;;
80249;SDS011;69561;37.974;23.708;2023-06-04T03:58:54;14.43;;;4.72;;
80249;SDS011;69561;37.974;23.708;2023-06-04T04:01:21;7.43;;;3.97;;
80249;SDS011;69561;37.974;23.708;2023-06-04T04:03:48;10.90;;;4.20;;
80249;SDS011;69561;37.974;23.708;2023-06-04T04:06:15;9.52;;;4.20;;
80249;SDS011;69561;37.974;23.708;2023-06-04T04:08:40;7.18;;;4.05;;
80249;SDS011;69561;37.974;23.708;2023-06-04T04:11:12;11.07;;;4.30;;
80249;SDS011;69561;37.974;23.708;2023-06-04T04:13:39;9.82;;;4.18;;
80249;SDS011;69561;37.974;23.708;2023-06-04T04:16:05;15.00;;;4.18;;
80249;SDS011;69561;37.974;23.708;2023-06-04T04:18:34;8.52;;;4.15;;
80249;SDS011;69561;37.974;23.708;2023-06-04T04:21:01;12.40;;;4.00;;
80249;SDS011;69561;37.974;23.708;2023-06-04T04:23:28;10.65;;;3.70;;
80249;SDS011;69561;37.974;23.708;2023-06-04T04:25:54;7.50;;;4.03;;
80249;SDS011;69561;37.974;23.708;2023-06-04T04:28:21;10.73;;;4.10;;
80249;SDS011;69561;37.974;23.708;2023-06-04T04:30:47;8.45;;;3.80;;
80249;SDS011;69561;37.974;23.708;2023-06-04T04:33:14;6.90;;;4.03;;
80249;SDS011;69561;37.974;23.708;2023-06-04T04:35:42;8.82;;;4.13;;
80249;SDS011;69561;37.974;23.708;2023-06-04T04:38:09;15.90;;;4.32;;
80249;SDS011;69561;37.974;23.708;2023-06-04T04:40:35;11.57;;;4.43;;
80249;SDS011;69561;37.974;23.708;2023-06-04T04:43:01;9.00;;;4.00;;
80249;SDS011;69561;37.974;23.708;2023-06-04T04:45:27;7.63;;;3.80;;
80249;SDS011;69561;37.974;23.708;2023-06-04T04:47:53;10.90;;;3.80;;
80249;SDS011;69561;37.974;23.708;2023-06-04T04:50:19;8.10;;;4.25;;
80249;SDS011;69561;37.974;23.708;2023-06-04T04:52:45;12.38;;;4.10;;
80249;SDS011;69561;37.974;23.708;2023-06-04T04:55:11;8.30;;;4.00;;
80249;SDS011;69561;37.974;23.708;2023-06-04T04:57:38;11.40;;;4.15;;
80249;SDS011;69561;37.974;23.708;2023-06-04T05:00:04;8.85;;;4.40;;
80249;SDS011;69561;37.974;23.708;2023-06-04T05:02:32;6.72;;;4.05;;
80249;SDS011;69561;37.974;23.708;2023-06-04T05:04:59;5.95;;;4.13;;
80249;SDS011;69561;37.974;23.708;2023-06-04T05:07:25;13.00;;;4.20;;
80249;SDS011;69561;37.974;23.708;2023-06-04T05:09:51;6.75;;;3.78;;
80249;SDS011;69561;37.974;23.708;2023-06-04T05:12:16;9.98;;;3.70;;
80249;SDS011;69561;37.974;23.708;2023-06-04T05:14:42;10.05;;;4.05;;
80249;SDS011;69561;37.974;23.708;2023-06-04T05:17:08;11.25;;;3.60;;
80249;SDS011;69561;37.974;23.708;2023-06-04T05:19:35;9.82;;;3.50;;
80249;SDS011;69561;37.974;23.708;2023-06-04T05:22:02;6.03;;;3.97;;
80249;SDS011;69561;37.974;23.708;2023-06-04T05:24:28;7.20;;;3.88;;
80249;SDS011;69561;37.974;23.708;2023-06-04T05:26:54;6.63;;;3.60;;
80249;SDS011;69561;37.974;23.708;2023-06-04T05:29:22;8.20;;;3.80;;
80249;SDS011;69561;37.974;23.708;2023-06-04T05:31:48;8.73;;;3.70;;
80249;SDS011;69561;37.974;23.708;2023-06-04T05:34:14;9.30;;;4.00;;
80249;SDS011;69561;37.974;23.708;2023-06-04T05:36:41;9.05;;;3.60;;
80249;SDS011;69561;37.974;23.708;2023-06-04T05:39:06;4.90;;;3.30;;
80249;SDS011;69561;37.974;23.708;2023-06-04T05:41:34;6.57;;;3.88;;
80249;SDS011;69561;37.974;23.708;2023-06-04T05:44:00;9.07;;;3.75;;
80249;SDS011;69561;37.974;23.708;2023-06-04T05:46:27;5.70;;;3.50;;
80249;SDS011;69561;37.974;23.708;2023-06-04T05:48:53;9.82;;;3.38;;
80249;SDS011;69561;37.974;23.708;2023-06-04T05:51:19;6.72;;;3.60;;
80249;SDS011;69561;37.974;23.708;2023-06-04T05:53:45;7.25;;;3.63;;
80249;SDS011;69561;37.974;23.708;2023-06-04T05:56:11;8.05;;;3.53;;
80249;SDS011;69561;37.974;23.708;2023-06-04T05:58:37;6.05;;;3.80;;
80249;SDS011;69561;37.974;23.708;2023-06-04T06:01:03;6.13;;;3.42;;
80249;SDS011;69561;37.974;23.708;2023-06-04T06:03:29;4.68;;;3.53;;
80249;SDS011;69561;37.974;23.708;2023-06-04T06:05:55;11.98;;;3.67;;
80249;SDS011;69561;37.974;23.708;2023-06-04T06:08:22;6.25;;;3.25;;
80249;SDS011;69561;37.974;23.708;2023-06-04T06:10:48;9.38;;;3.58;;
80249;SDS011;69561;37.974;23.708;2023-06-04T06:13:13;4.63;;;3.08;;
80249;SDS011;69561;37.974;23.708;2023-06-04T06:15:40;5.65;;;3.70;;
80249;SDS011;69561;37.974;23.708;2023-06-04T06:18:05;10.27;;;3.55;;
80249;SDS011;69561;37.974;23.708;2023-06-04T06:20:31;3.65;;;3.22;;
80249;SDS011;69561;37.974;23.708;2023-06-04T06:22:57;5.45;;;3.20;;
80249;SDS011;69561;37.974;23.708;2023-06-04T06:25:30;5.75;;;3.30;;
80249;SDS011;69561;37.974;23.708;2023-06-04T06:27:57;5.13;;;3.38;;
80249;SDS011;69561;37.974;23.708;2023-06-04T06:30:22;5.35;;;3.55;;
80249;SDS011;69561;37.974;23.708;2023-06-04T06:32:48;4.80;;;3.28;;
80249;SDS011;69561;37.974;23.708;2023-06-04T06:35:15;4.22;;;3.20;;
80249;SDS011;69561;37.974;23.708;2023-06-04T06:37:41;7.75;;;3.30;;
80249;SDS011;69561;37.974;23.708;2023-06-04T06:40:08;8.13;;;3.35;;
80249;SDS011;69561;37.974;23.708;2023-06-04T06:42:34;6.00;;;3.33;;
80249;SDS011;69561;37.974;23.708;2023-06-04T06:45:00;5.93;;;3.13;;
80249;SDS011;69561;37.974;23.708;2023-06-04T06:47:26;5.70;;;3.10;;
80249;SDS011;69561;37.974;23.708;2023-06-04T06:49:52;6.10;;;3.28;;
80249;SDS011;69561;37.974;23.708;2023-06-04T06:52:17;4.07;;;2.95;;
80249;SDS011;69561;37.974;23.708;2023-06-04T06:54:45;3.65;;;2.78;;
80249;SDS011;69561;37.974;23.708;2023-06-04T06:57:11;3.30;;;2.95;;
80249;SDS011;69561;37.974;23.708;2023-06-04T06:59:37;4.40;;;2.88;;
80249;SDS011;69561;37.974;23.708;2023-06-04T07:02:02;3.53;;;2.97;;
80249;SDS011;69561;37.974;23.708;2023-06-04T07:04:29;5.25;;;2.95;;
80249;SDS011;69561;37.974;23.708;2023-06-04T07:06:54;4.05;;;3.17;;
80249;SDS011;69561;37.974;23.708;2023-06-04T07:09:20;5.03;;;3.30;;
80249;SDS011;69561;37.974;23.708;2023-06-04T07:11:46;3.72;;;2.92;;
80249;SDS011;69561;37.974;23.708;2023-06-04T07:14:12;2.90;;;2.60;;
80249;SDS011;69561;37.974;23.708;2023-06-04T07:16:37;4.65;;;2.70;;
80249;SDS011;69561;37.974;23.708;2023-06-04T07:19:03;6.55;;;2.97;;
80249;SDS011;69561;37.974;23.708;2023-06-04T07:21:29;5.28;;;2.95;;
80249;SDS011;69561;37.974;23.708;2023-06-04T07:23:54;4.88;;;3.13;;
80249;SDS011;69561;37.974;23.708;2023-06-04T07:26:20;3.50;;;3.08;;
80249;SDS011;69561;37.974;23.708;2023-06-04T07:28:46;3.45;;;2.95;;
80249;SDS011;69561;37.974;23.708;2023-06-04T07:31:15;3.30;;;3.00;;
80249;SDS011;69561;37.974;23.708;2023-06-04T07:33:42;2.80;;;2.60;;
80249;SDS011;69561;37.974;23.708;2023-06-04T07:36:11;6.32;;;2.90;;
80249;SDS011;69561;37.974;23.708;2023-06-04T07:38:38;4.30;;;3.03;;
80249;SDS011;69561;37.974;23.708;2023-06-04T07:41:04;4.00;;;3.00;;
80249;SDS011;69561;37.974;23.708;2023-06-04T07:43:29;5.85;;;2.90;;
80249;SDS011;69561;37.974;23.708;2023-06-04T07:45:56;3.50;;;2.75;;
80249;SDS011;69561;37.974;23.708;2023-06-04T07:48:22;4.20;;;2.88;;
80249;SDS011;69561;37.974;23.708;2023-06-04T07:50:55;3.70;;;3.05;;
80249;SDS011;69561;37.974;23.708;2023-06-04T07:53:27;3.30;;;3.00;;
80249;SDS011;69561;37.974;23.708;2023-06-04T07:55:53;2.53;;;2.33;;
80249;SDS011;69561;37.974;23.708;2023-06-04T07:58:19;3.35;;;2.80;;
80249;SDS011;69561;37.974;23.708;2023-06-04T08:00:45;3.95;;;3.00;;
80249;SDS011;69561;37.974;23.708;2023-06-04T08:03:11;3.97;;;2.88;;
80249;SDS011;69561;37.974;23.708;2023-06-04T08:05:37;3.47;;;2.97;;
80249;SDS011;69561;37.974;23.708;2023-06-04T08:08:03;4.60;;;2.80;;
80249;SDS011;69561;37.974;23.708;2023-06-04T08:10:29;3.35;;;2.97;;
80249;SDS011;69561;37.974;23.708;2023-06-04T08:12:55;6.30;;;2.90;;
80249;SDS011;69561;37.974;23.708;2023-06-04T08:15:21;4.15;;;3.05;;
80249;SDS011;69561;37.974;23.708;2023-06-04T08:17:47;3.28;;;2.80;;
80249;SDS011;69561;37.974;23.708;2023-06-04T08:20:13;3.35;;;3.03;;
80249;SDS011;69561;37.974;23.708;2023-06-04T08:22:38;4.03;;;2.92;;
80249;SDS011;69561;37.974;23.708;2023-06-04T08:25:06;4.60;;;3.47;;
80249;SDS011;69561;37.974;23.708;2023-06-04T08:27:32;5.40;;;2.70;;
80249;SDS011;69561;37.974;23.708;2023-06-04T08:29:57;3.75;;;3.00;;
80249;SDS011;69561;37.974;23.708;2023-06-04T08:32:23;4.20;;;3.15;;
80249;SDS011;69561;37.974;23.708;2023-06-04T08:34:49;4.28;;;3.15;;
80249;SDS011;69561;37.974;23.708;2023-06-04T08:37:16;5.40;;;3.63;;
80249;SDS011;69561;37.974;23.708;2023-06-04T08:39:42;9.20;;;3.30;;
80249;SDS011;69561;37.974;23.708;2023-06-04T08:42:09;7.00;;;3.25;;
80249;SDS011;69561;37.974;23.708;2023-06-04T08:44:52;4.47;;;3.47;;
80249;SDS011;69561;37.974;23.708;2023-06-04T08:47:19;6.10;;;3.30;;
80249;SDS011;69561;37.974;23.708;2023-06-04T08:49:47;6.93;;;3.22;;
80249;SDS011;69561;37.974;23.708;2023-06-04T08:52:15;3.65;;;3.00;;
80249;SDS011;69561;37.974;23.708;2023-06-04T08:54:41;5.70;;;3.47;;
80249;SDS011;69561;37.974;23.708;2023-06-04T08:57:08;4.70;;;3.00;;
80249;SDS011;69561;37.974;23.708;2023-06-04T08:59:34;7.07;;;3.00;;
80249;SDS011;69561;37.974;23.708;2023-06-04T09:02:01;7.68;;;3.10;;
80249;SDS011;69561;37.974;23.708;2023-06-04T09:04:29;4.60;;;3.13;;
80249;SDS011;69561;37.974;23.708;2023-06-04T09:06:56;3.90;;;3.42;;
80249;SDS011;69561;37.974;23.708;2023-06-04T09:11:55;6.35;;;3.22;;
80249;SDS011;69561;37.974;23.708;2023-06-04T09:14:22;7.20;;;3.78;;
80249;SDS011;69561;37.974;23.708;2023-06-04T09:16:51;4.93;;;2.90;;
80249;SDS011;69561;37.974;23.708;2023-06-04T09:19:19;6.35;;;3.22;;
80249;SDS011;69561;37.974;23.708;2023-06-04T09:21:49;5.50;;;3.15;;
80249;SDS011;69561;37.974;23.708;2023-06-04T09:24:23;6.53;;;3.50;;
80249;SDS011;69561;37.974;23.708;2023-06-04T09:27:09;5.82;;;3.50;;
80249;SDS011;69561;37.974;23.708;2023-06-04T09:29:36;7.97;;;3.42;;
80249;SDS011;69561;37.974;23.708;2023-06-04T09:32:02;4.70;;;3.30;;
80249;SDS011;69561;37.974;23.708;2023-06-04T09:34:28;4.88;;;3.38;;
80249;SDS011;69561;37.974;23.708;2023-06-04T09:36:54;6.60;;;3.70;;
80249;SDS011;69561;37.974;23.708;2023-06-04T09:39:21;4.28;;;3.25;;
80249;SDS011;69561;37.974;23.708;2023-06-04T09:41:57;7.05;;;3.60;;
80249;SDS011;69561;37.974;23.708;2023-06-04T09:44:28;10.18;;;3.63;;
80249;SDS011;69561;37.974;23.708;2023-06-04T09:46:57;6.53;;;3.50;;
80249;SDS011;69561;37.974;23.708;2023-06-04T09:49:23;8.15;;;3.35;;
80249;SDS011;69561;37.974;23.708;2023-06-04T09:51:50;4.88;;;3.10;;
80249;SDS011;69561;37.974;23.708;2023-06-04T09:54:16;5.20;;;3.20;;
80249;SDS011;69561;37.974;23.708;2023-06-04T09:56:42;3.95;;;2.72;;
80249;SDS011;69561;37.974;23.708;2023-06-04T09:59:08;5.63;;;3.13;;
80249;SDS011;69561;37.974;23.708;2023-06-04T10:01:36;5.93;;;3.20;;
80249;SDS011;69561;37.974;23.708;2023-06-04T10:04:06;3.42;;;2.92;;
80249;SDS011;69561;37.974;23.708;2023-06-04T10:06:34;3.63;;;2.88;;
80249;SDS011;69561;37.974;23.708;2023-06-04T10:09:08;3.95;;;3.05;;
80249;SDS011;69561;37.974;23.708;2023-06-04T10:11:35;4.55;;;2.90;;
80249;SDS011;69561;37.974;23.708;2023-06-04T10:14:15;5.55;;;2.90;;
80249;SDS011;69561;37.974;23.708;2023-06-04T10:16:43;4.30;;;2.72;;
80249;SDS011;69561;37.974;23.708;2023-06-04T10:19:10;3.42;;;2.70;;
80249;SDS011;69561;37.974;23.708;2023-06-04T10:21:37;5.35;;;2.90;;
80249;SDS011;69561;37.974;23.708;2023-06-04T10:24:03;3.65;;;2.83;;
80249;SDS011;69561;37.974;23.708;2023-06-04T10:26:32;6.65;;;3.20;;
80249;SDS011;69561;37.974;23.708;2023-06-04T10:29:00;3.28;;;2.95;;
80249;SDS011;69561;37.974;23.708;2023-06-04T10:31:26;3.90;;;3.25;;
80249;SDS011;69561;37.974;23.708;2023-06-04T10:33:55;6.65;;;3.22;;
80249;SDS011;69561;37.974;23.708;2023-06-04T10:36:23;3.08;;;2.78;;
80249;SDS011;69561;37.974;23.708;2023-06-04T10:38:53;4.25;;;3.00;;
80249;SDS011;69561;37.974;23.708;2023-06-04T10:41:20;6.45;;;3.20;;
80249;SDS011;69561;37.974;23.708;2023-06-04T10:43:48;4.65;;;2.92;;
80249;SDS011;69561;37.974;23.708;2023-06-04T10:46:15;3.60;;;3.17;;
80249;SDS011;69561;37.974;23.708;2023-06-04T10:48:48;4.22;;;3.15;;
80249;SDS011;69561;37.974;23.708;2023-06-04T10:51:31;4.13;;;3.13;;
80249;SDS011;69561;37.974;23.708;2023-06-04T10:54:01;4.53;;;3.17;;
80249;SDS011;69561;37.974;23.708;2023-06-04T10:56:29;4.45;;;3.45;;
80249;SDS011;69561;37.974;23.708;2023-06-04T10:59:00;5.80;;;3.50;;
80249;SDS011;69561;37.974;23.708;2023-06-04T11:01:37;5.75;;;3.70;;
80249;SDS011;69561;37.974;23.708;2023-06-04T11:04:03;4.28;;;3.45;;
80249;SDS011;69561;37.974;23.708;2023-06-04T11:06:29;7.30;;;3.60;;
80249;SDS011;69561;37.974;23.708;2023-06-04T11:09:02;5.70;;;3.35;;
80249;SDS011;69561;37.974;23.708;2023-06-04T11:11:29;3.75;;;3.22;;
80249;SDS011;69561;37.974;23.708;2023-06-04T11:13:55;4.63;;;3.20;;
80249;SDS011;69561;37.974;23.708;2023-06-04T11:16:21;4.50;;;3.50;;
80249;SDS011;69561;37.974;23.708;2023-06-04T11:18:54;5.05;;;3.33;;
80249;SDS011;69561;37.974;23.708;2023-06-04T11:21:21;6.18;;;3.85;;
80249;SDS011;69561;37.974;23.708;2023-06-04T11:23:47;5.05;;;3.72;;
80249;SDS011;69561;37.974;23.708;2023-06-04T11:26:13;4.03;;;3.38;;
80249;SDS011;69561;37.974;23.708;2023-06-04T11:28:39;5.82;;;3.40;;
80249;SDS011;69561;37.974;23.708;2023-06-04T11:31:07;5.50;;;3.45;;
80249;SDS011;69561;37.974;23.708;2023-06-04T11:33:43;6.50;;;3.95;;
80249;SDS011;69561;37.974;23.708;2023-06-04T11:36:10;6.03;;;3.33;;
80249;SDS011;69561;37.974;23.708;2023-06-04T11:38:36;5.00;;;3.67;;
80249;SDS011;69561;37.974;23.708;2023-06-04T11:41:02;4.82;;;3.40;;
80249;SDS011;69561;37.974;23.708;2023-06-04T11:43:29;7.05;;;3.85;;
80249;SDS011;69561;37.974;23.708;2023-06-04T11:45:57;5.05;;;3.53;;
80249;SDS011;69561;37.974;23.708;2023-06-04T11:48:23;5.18;;;3.60;;
80249;SDS011;69561;37.974;23.708;2023-06-04T11:50:49;5.18;;;3.22;;
80249;SDS011;69561;37.974;23.708;2023-06-04T11:53:15;5.57;;;3.58;;
80249;SDS011;69561;37.974;23.708;2023-06-04T11:55:41;6.07;;;3.53;;
80249;SDS011;69561;37.974;23.708;2023-06-04T11:58:07;4.53;;;3.40;;
80249;SDS011;69561;37.974;23.708;2023-06-04T12:00:34;5.57;;;3.47;;
80249;SDS011;69561;37.974;23.708;2023-06-04T12:03:00;4.78;;;3.70;;
80249;SDS011;69561;37.974;23.708;2023-06-04T12:05:29;4.10;;;3.45;;
80249;SDS011;69561;37.974;23.708;2023-06-04T12:08:06;4.77;;;3.37;;
80249;SDS011;69561;37.974;23.708;2023-06-04T12:10:43;5.45;;;3.75;;
80249;SDS011;69561;37.974;23.708;2023-06-04T12:13:09;6.15;;;3.70;;
80249;SDS011;69561;37.974;23.708;2023-06-04T12:15:36;4.70;;;3.35;;
80249;SDS011;69561;37.974;23.708;2023-06-04T12:18:02;16.60;;;4.53;;
80249;SDS011;69561;37.974;23.708;2023-06-04T12:20:39;9.43;;;4.07;;
80249;SDS011;69561;37.974;23.708;2023-06-04T12:23:07;11.73;;;4.30;;
80249;SDS011;69561;37.974;23.708;2023-06-04T12:25:33;17.77;;;4.10;;
80249;SDS011;69561;37.974;23.708;2023-06-04T12:27:59;9.98;;;4.07;;
80249;SDS011;69561;37.974;23.708;2023-06-04T12:30:36;9.73;;;4.40;;
80249;SDS011;69561;37.974;23.708;2023-06-04T12:33:03;14.88;;;5.07;;
80249;SDS011;69561;37.974;23.708;2023-06-04T12:35:29;13.50;;;5.18;;
80249;SDS011;69561;37.974;23.708;2023-06-04T12:37:54;12.50;;;5.28;;
80249;SDS011;69561;37.974;23.708;2023-06-04T12:40:20;13.57;;;5.75;;
80249;SDS011;69561;37.974;23.708;2023-06-04T12:42:46;12.60;;;5.35;;
80249;SDS011;69561;37.974;23.708;2023-06-04T12:45:15;8.85;;;5.25;;
80249;SDS011;69561;37.974;23.708;2023-06-04T12:47:42;11.25;;;5.70;;
80249;SDS011;69561;37.974;23.708;2023-06-04T12:50:08;8.98;;;4.80;;
80249;SDS011;69561;37.974;23.708;2023-06-04T12:52:34;7.65;;;4.95;;
80249;SDS011;69561;37.974;23.708;2023-06-04T12:55:00;18.02;;;5.57;;
80249;SDS011;69561;37.974;23.708;2023-06-04T12:57:25;13.18;;;4.85;;
80249;SDS011;69561;37.974;23.708;2023-06-04T12:59:51;12.93;;;5.75;;
80249;SDS011;69561;37.974;23.708;2023-06-04T13:02:17;15.77;;;5.60;;
80249;SDS011;69561;37.974;23.708;2023-06-04T13:04:42;14.85;;;5.50;;
80249;SDS011;69561;37.974;23.708;2023-06-04T13:07:11;15.93;;;5.32;;
80249;SDS011;69561;37.974;23.708;2023-06-04T13:09:36;10.20;;;5.47;;
80249;SDS011;69561;37.974;23.708;2023-06-04T13:12:02;11.30;;;5.80;;
80249;SDS011;69561;37.974;23.708;2023-06-04T13:14:30;13.10;;;6.20;;
80249;SDS011;69561;37.974;23.708;2023-06-04T13:16:58;11.85;;;5.72;;
80249;SDS011;69561;37.974;23.708;2023-06-04T13:19:24;12.07;;;5.65;;
80249;SDS011;69561;37.974;23.708;2023-06-04T13:21:50;14.63;;;5.30;;
80249;SDS011;69561;37.974;23.708;2023-06-04T13:24:16;13.80;;;5.97;;
80249;SDS011;69561;37.974;23.708;2023-06-04T13:26:41;10.98;;;6.10;;
80249;SDS011;69561;37.974;23.708;2023-06-04T13:29:07;11.52;;;5.25;;
80249;SDS011;69561;37.974;23.708;2023-06-04T13:31:33;10.45;;;4.70;;
80249;SDS011;69561;37.974;23.708;2023-06-04T13:33:58;10.82;;;4.70;;
80249;SDS011;69561;37.974;23.708;2023-06-04T13:36:24;12.13;;;5.00;;
80249;SDS011;69561;37.974;23.708;2023-06-04T13:38:50;7.72;;;4.28;;
80249;SDS011;69561;37.974;23.708;2023-06-04T13:41:17;11.82;;;4.93;;
80249;SDS011;69561;37.974;23.708;2023-06-04T13:43:43;12.80;;;4.95;;
80249;SDS011;69561;37.974;23.708;2023-06-04T13:46:09;7.32;;;4.45;;
80249;SDS011;69561;37.974;23.708;2023-06-04T13:48:34;12.20;;;4.35;;
80249;SDS011;69561;37.974;23.708;2023-06-04T13:51:00;12.60;;;4.53;;
80249;SDS011;69561;37.974;23.708;2023-06-04T13:53:26;7.78;;;4.00;;
80249;SDS011;69561;37.974;23.708;2023-06-04T13:55:52;10.85;;;4.40;;
80249;SDS011;69561;37.974;23.708;2023-06-04T13:58:22;7.28;;;4.35;;
80249;SDS011;69561;37.974;23.708;2023-06-04T14:00:49;9.25;;;3.72;;
80249;SDS011;69561;37.974;23.708;2023-06-04T14:03:15;8.88;;;3.85;;
80249;SDS011;69561;37.974;23.708;2023-06-04T14:05:41;11.07;;;3.65;;
80249;SDS011;69561;37.974;23.708;2023-06-04T14:08:06;10.05;;;3.50;;
80249;SDS011;69561;37.974;23.708;2023-06-04T14:10:32;8.55;;;3.55;;
80249;SDS011;69561;37.974;23.708;2023-06-04T14:12:58;10.18;;;3.15;;
80249;SDS011;69561;37.974;23.708;2023-06-04T14:15:24;9.48;;;3.45;;
80249;SDS011;69561;37.974;23.708;2023-06-04T14:17:50;5.68;;;2.92;;
80249;SDS011;69561;37.974;23.708;2023-06-04T14:20:15;5.68;;;3.15;;
80249;SDS011;69561;37.974;23.708;2023-06-04T14:22:41;5.53;;;2.83;;
80249;SDS011;69561;37.974;23.708;2023-06-04T14:25:07;6.07;;;3.00;;
80249;SDS011;69561;37.974;23.708;2023-06-04T14:27:33;4.57;;;2.80;;
80249;SDS011;69561;37.974;23.708;2023-06-04T14:30:00;6.20;;;3.30;;
80249;SDS011;69561;37.974;23.708;2023-06-04T14:32:27;5.22;;;2.90;;
80249;SDS011;69561;37.974;23.708;2023-06-04T14:34:53;5.32;;;2.95;;
80249;SDS011;69561;37.974;23.708;2023-06-04T14:37:18;10.40;;;3.10;;
80249;SDS011;69561;37.974;23.708;2023-06-04T14:39:46;5.35;;;3.10;;